Willacoochee, Georgia
Current Conditions -  °F | °C
As of 7:15 AM on Sunday 23 Nov 2014 (Local Time) from KDQH Reporting Station
Moderate Rain Moderate Rain  
Wind Chill: 63°   Ceiling: 500
Heat Index: 63°   Visibility: 10mi
Dew Point: 61°   Wind: 9mph
Humidity: 94%   Direction: 80°E
Pressure: 30"   Gusts: NA
Location:  31.34°N, 83.05°W
Report Text: KDQH 231215Z AUTO 08008KT 10SM RA OVC005 17/16 A3000 RMK AO2
Loading
Personal Weather Stations






























Interactive Weather Map New forecast layout! Learn more

10-Day Weather Forecast

Advertisements
Track Severe Weather on mobile